createdAt,value
2018-02-21T00:00:34.122Z,1002.73
2018-02-21T00:01:40.143Z,1002.69
2018-02-21T00:02:46.641Z,1002.77
2018-02-21T00:03:52.687Z,1002.72
2018-02-21T00:04:58.145Z,1002.76
2018-02-21T00:06:04.180Z,1002.80
2018-02-21T00:07:10.159Z,1002.82
2018-02-21T00:08:16.164Z,1002.84
2018-02-21T00:09:22.178Z,1002.91
2018-02-21T00:10:28.184Z,1002.91
2018-02-21T00:11:34.242Z,1002.88
2018-02-21T00:12:40.214Z,1002.86
2018-02-21T00:13:46.503Z,1002.85
2018-02-21T00:14:52.205Z,1002.90
2018-02-21T00:15:58.718Z,1002.85
2018-02-21T00:17:04.246Z,1002.89
2018-02-21T00:18:10.721Z,1002.94
2018-02-21T00:19:16.238Z,1002.91
2018-02-21T00:20:22.236Z,1002.93
2018-02-21T00:21:28.294Z,1002.91
2018-02-21T00:22:34.776Z,1002.94
2018-02-21T00:23:40.254Z,1002.93
2018-02-21T00:24:46.285Z,1002.94
2018-02-21T00:25:52.276Z,1002.88
2018-02-21T00:26:58.837Z,1002.93
2018-02-21T00:28:04.292Z,1002.90
2018-02-21T00:29:10.295Z,1002.90
2018-02-21T00:30:16.306Z,1002.94
2018-02-21T00:31:22.808Z,1002.88
2018-02-21T00:32:28.849Z,1002.90
2018-02-21T00:33:34.323Z,1002.89
2018-02-21T00:34:40.337Z,1002.88
2018-02-21T00:35:46.341Z,1002.89
2018-02-21T00:36:52.396Z,1002.94
2018-02-21T00:37:58.383Z,1002.91
2018-02-21T00:39:04.376Z,1002.92
2018-02-21T00:40:10.864Z,1002.92
2018-02-21T00:41:16.392Z,1002.95
2018-02-21T00:42:22.410Z,1002.94
2018-02-21T00:43:28.397Z,1002.99
2018-02-21T00:44:34.407Z,1002.96
2018-02-21T00:45:40.902Z,1002.98
2018-02-21T00:46:46.949Z,1003.01
2018-02-21T00:47:52.456Z,1002.99
2018-02-21T00:48:58.934Z,1002.99
2018-02-21T00:50:04.455Z,1003.02
2018-02-21T00:51:10.458Z,1003.00
2018-02-21T00:52:16.481Z,1003.02
2018-02-21T00:53:22.515Z,1003.03
2018-02-21T00:54:28.986Z,1003.01
2018-02-21T00:55:34.509Z,1002.99
2018-02-21T00:56:40.999Z,1002.98
2018-02-21T00:57:46.516Z,1003.00
2018-02-21T00:58:52.554Z,1003.04
2018-02-21T00:59:58.531Z,1003.07
2018-02-21T01:01:05.543Z,1003.10
2018-02-21T01:02:11.041Z,1003.17
2018-02-21T01:03:16.578Z,1003.14
2018-02-21T01:04:23.071Z,1003.18
2018-02-21T01:05:28.578Z,1003.19
2018-02-21T01:06:35.172Z,1003.23
2018-02-21T01:07:41.157Z,1003.26
2018-02-21T01:08:46.647Z,1003.23
2018-02-21T01:09:52.617Z,1003.23
2018-02-21T01:10:59.159Z,1003.28
2018-02-21T01:12:04.642Z,1003.29
2018-02-21T01:13:10.688Z,1003.29
2018-02-21T01:14:16.666Z,1003.32
2018-02-21T01:15:22.711Z,1003.30
2018-02-21T01:16:29.199Z,1003.29
2018-02-21T01:17:34.707Z,1003.36
2018-02-21T01:18:41.234Z,1003.33
2018-02-21T01:19:47.722Z,1003.34
2018-02-21T01:20:52.750Z,1003.35
2018-02-21T01:21:59.267Z,1003.34
2018-02-21T01:23:05.259Z,1003.33
2018-02-21T01:24:11.504Z,1003.38
2018-02-21T01:25:17.284Z,1003.41
2018-02-21T01:26:23.001Z,1003.39
2018-02-21T01:27:28.825Z,1003.35
2018-02-21T01:28:36.355Z,1003.37
2018-02-21T01:29:40.860Z,1003.40
2018-02-21T01:30:46.868Z,1003.43
2018-02-21T01:31:53.379Z,1003.45
2018-02-21T01:32:59.385Z,1003.48
2018-02-21T01:34:05.426Z,1003.43
2018-02-21T01:35:11.411Z,1003.42
2018-02-21T01:36:16.941Z,1003.43
2018-02-21T01:37:23.446Z,1003.53
2018-02-21T01:38:28.967Z,1003.47
2018-02-21T01:39:35.496Z,1003.49
2018-02-21T01:40:40.990Z,1003.49
2018-02-21T01:41:47.515Z,1003.52
2018-02-21T01:42:53.025Z,1003.50
2018-02-21T01:43:59.542Z,1003.53
2018-02-21T01:45:05.090Z,1003.55
2018-02-21T01:46:11.158Z,1003.59
2018-02-21T01:47:17.166Z,1003.59
2018-02-21T01:48:23.607Z,1003.61
2018-02-21T01:49:29.144Z,1003.54
2018-02-21T01:50:35.132Z,1003.53
2018-02-21T01:51:41.642Z,1003.58
2018-02-21T01:52:47.159Z,1003.59
2018-02-21T01:53:53.669Z,1003.61
2018-02-21T01:54:59.714Z,1003.55
2018-02-21T01:56:05.201Z,1003.55
2018-02-21T01:57:11.223Z,1003.57
2018-02-21T01:58:17.238Z,1003.54
2018-02-21T01:59:23.756Z,1003.53
2018-02-21T02:00:29.762Z,1003.54
2018-02-21T02:01:35.774Z,1003.50
2018-02-21T02:02:42.289Z,1003.43
2018-02-21T02:03:47.808Z,1003.50
2018-02-21T02:04:54.351Z,1003.47
2018-02-21T02:05:59.842Z,1003.43
2018-02-21T02:07:05.862Z,1003.49
2018-02-21T02:08:12.833Z,1003.52
2018-02-21T02:09:17.904Z,1003.53
2018-02-21T02:10:23.446Z,1003.53
2018-02-21T02:11:29.436Z,1003.57
2018-02-21T02:12:35.963Z,1003.51
2018-02-21T02:13:41.959Z,1003.54
2018-02-21T02:14:47.998Z,1003.55
2018-02-21T02:15:53.508Z,1003.55
2018-02-21T02:17:00.011Z,1003.58
2018-02-21T02:18:05.544Z,1003.59
2018-02-21T02:19:12.065Z,1003.57
2018-02-21T02:20:17.611Z,1003.57
2018-02-21T02:21:24.098Z,1003.56
2018-02-21T02:22:29.629Z,1003.52
2018-02-21T02:23:35.628Z,1003.54
2018-02-21T02:24:42.156Z,1003.57
2018-02-21T02:25:47.673Z,1003.58
2018-02-21T02:26:54.181Z,1003.59
2018-02-21T02:27:59.692Z,1003.59
2018-02-21T02:29:06.511Z,1003.60
2018-02-21T02:30:11.749Z,1003.61
2018-02-21T02:31:17.739Z,1003.63
2018-02-21T02:32:24.248Z,1003.64
2018-02-21T02:33:30.272Z,1003.63
2018-02-21T02:34:36.302Z,1003.65
2018-02-21T02:35:42.289Z,1003.66
2018-02-21T02:36:48.319Z,1003.69
2018-02-21T02:37:54.327Z,1003.68
2018-02-21T02:39:00.342Z,1003.73
2018-02-21T02:40:05.894Z,1003.72
2018-02-21T02:41:11.893Z,1003.76
2018-02-21T02:42:18.404Z,1003.70
2018-02-21T02:43:24.413Z,1003.73
2018-02-21T02:44:30.414Z,1003.76
2018-02-21T02:45:36.460Z,1003.71
2018-02-21T02:46:41.961Z,1003.78
2018-02-21T02:47:48.482Z,1003.77
2018-02-21T02:48:54.481Z,1003.77
2018-02-21T02:50:00.533Z,1003.80
2018-02-21T02:51:06.529Z,1003.76
2018-02-21T02:52:12.534Z,1003.72
2018-02-21T02:53:18.057Z,1003.77
2018-02-21T02:54:24.575Z,1003.74
2018-02-21T02:55:30.121Z,1003.78
2018-02-21T02:56:36.121Z,1003.77
2018-02-21T02:57:42.124Z,1003.76
2018-02-21T02:58:48.627Z,1003.77
2018-02-21T02:59:54.171Z,1003.76
2018-02-21T03:01:00.666Z,1003.72
2018-02-21T03:02:06.676Z,1003.74
2018-02-21T03:03:12.694Z,1003.90
2018-02-21T03:04:18.695Z,1003.78
2018-02-21T03:05:24.241Z,1003.74
2018-02-21T03:06:30.742Z,1003.76
2018-02-21T03:07:36.243Z,1003.78
2018-02-21T03:08:42.259Z,1003.76
2018-02-21T03:09:48.784Z,1003.74
2018-02-21T03:10:54.315Z,1003.82
2018-02-21T03:12:00.305Z,1003.75
2018-02-21T03:13:06.829Z,1003.75
2018-02-21T03:14:12.835Z,1003.77
2018-02-21T03:15:18.882Z,1003.79
2018-02-21T03:16:24.869Z,1003.79
2018-02-21T03:17:30.886Z,1003.75
2018-02-21T03:18:36.414Z,1003.82
2018-02-21T03:19:42.422Z,1003.84
2018-02-21T03:20:48.470Z,1003.76
2018-02-21T03:21:54.938Z,1003.80
2018-02-21T03:23:00.456Z,1003.80
2018-02-21T03:24:06.970Z,1003.75
2018-02-21T03:25:12.997Z,1003.80
2018-02-21T03:26:19.010Z,1003.79
2018-02-21T03:27:25.016Z,1003.75
2018-02-21T03:28:31.015Z,1003.76
2018-02-21T03:29:36.544Z,1003.78
2018-02-21T03:30:43.166Z,1003.81
2018-02-21T03:31:48.568Z,1003.82
2018-02-21T03:32:55.153Z,1003.80
2018-02-21T03:34:01.149Z,1003.81
2018-02-21T03:35:06.638Z,1003.83
2018-02-21T03:36:12.624Z,1003.85
2018-02-21T03:37:19.150Z,1003.82
2018-02-21T03:38:25.195Z,1003.91
2018-02-21T03:39:30.670Z,1003.88
2018-02-21T03:40:37.190Z,1003.87
2018-02-21T03:41:42.688Z,1003.86
2018-02-21T03:42:49.212Z,1003.86
2018-02-21T03:43:54.721Z,1003.88
2018-02-21T03:45:01.247Z,1003.86
2018-02-21T03:46:06.751Z,1003.89
2018-02-21T03:47:13.245Z,1003.85
2018-02-21T03:48:19.259Z,1003.86
2018-02-21T03:49:25.276Z,1003.85
2018-02-21T03:50:30.809Z,1003.85
2018-02-21T03:51:37.306Z,1003.88
2018-02-21T03:52:43.305Z,1003.84
2018-02-21T03:53:49.327Z,1003.81
2018-02-21T03:54:55.319Z,1003.84
2018-02-21T03:56:01.350Z,1003.88
2018-02-21T03:57:06.838Z,1003.90
2018-02-21T03:58:12.851Z,1003.86
2018-02-21T03:59:19.339Z,1003.87
2018-02-21T04:00:25.385Z,1003.94
2018-02-21T04:01:30.855Z,1003.90
2018-02-21T04:02:37.346Z,1003.91
2018-02-21T04:03:43.338Z,1003.91
2018-02-21T04:04:48.850Z,1003.83
2018-02-21T04:05:55.356Z,1003.86
2018-02-21T04:07:00.867Z,1003.85
2018-02-21T04:08:07.350Z,1003.86
2018-02-21T04:09:14.330Z,1003.83
2018-02-21T04:10:19.372Z,1003.84
2018-02-21T04:11:25.333Z,1003.88
2018-02-21T04:12:31.363Z,1003.85
2018-02-21T04:13:37.336Z,1003.90
2018-02-21T04:14:43.338Z,1003.90
2018-02-21T04:15:48.848Z,1003.90
2018-02-21T04:16:54.816Z,1003.86
2018-02-21T04:18:01.311Z,1003.85
2018-02-21T04:19:07.313Z,1003.87
2018-02-21T04:20:13.342Z,1003.89
2018-02-21T04:21:19.287Z,1003.88
2018-02-21T04:22:25.286Z,1003.85
2018-02-21T04:23:31.278Z,1003.85
2018-02-21T04:24:36.764Z,1003.84
2018-02-21T04:25:44.270Z,1003.82
2018-02-21T04:26:48.746Z,1003.80
2018-02-21T04:27:55.239Z,1003.80
2018-02-21T04:29:01.230Z,1003.74
2018-02-21T04:30:07.208Z,1003.76
2018-02-21T04:31:13.728Z,1003.77
2018-02-21T04:32:19.206Z,1003.74
2018-02-21T04:33:24.700Z,1003.75
2018-02-21T04:34:30.683Z,1003.74
2018-02-21T04:35:36.695Z,1003.71
2018-02-21T04:36:42.649Z,1003.70
2018-02-21T04:37:48.631Z,1003.69
2018-02-21T04:38:55.167Z,1003.70
2018-02-21T04:40:00.600Z,1003.67
2018-02-21T04:41:07.188Z,1003.65
2018-02-21T04:42:13.049Z,1003.72
2018-02-21T04:43:19.037Z,1003.70
2018-02-21T04:44:24.530Z,1003.70
2018-02-21T04:45:31.006Z,1003.69
2018-02-21T04:46:36.485Z,1003.67
2018-02-21T04:47:42.448Z,1003.68
2018-02-21T04:48:48.426Z,1003.72
2018-02-21T04:49:54.431Z,1003.69
2018-02-21T04:51:00.939Z,1003.68
2018-02-21T04:52:06.876Z,1003.72
2018-02-21T04:53:12.839Z,1003.74
2018-02-21T04:54:18.843Z,1003.75
2018-02-21T04:55:24.825Z,1003.70
2018-02-21T04:56:30.296Z,1003.69
2018-02-21T04:57:36.762Z,1003.69
2018-02-21T04:58:42.753Z,1003.65
2018-02-21T04:59:48.240Z,1003.63
2018-02-21T05:00:54.725Z,1003.61
2018-02-21T05:02:00.679Z,1003.59
2018-02-21T05:03:06.654Z,1003.65
2018-02-21T05:04:12.476Z,1003.62
2018-02-21T05:05:18.096Z,1003.65
2018-02-21T05:06:24.145Z,1003.66
2018-02-21T05:07:30.074Z,1003.71
2018-02-21T05:08:36.532Z,1003.67
2018-02-21T05:09:42.504Z,1003.68
2018-02-21T05:10:48.518Z,1003.68
2018-02-21T05:11:54.563Z,1003.70
2018-02-21T05:13:00.434Z,1003.75
2018-02-21T05:14:06.431Z,1003.72
2018-02-21T05:15:12.429Z,1003.68
2018-02-21T05:16:18.400Z,1003.74
2018-02-21T05:17:24.382Z,1003.70
2018-02-21T05:18:30.355Z,1003.69
2018-02-21T05:19:36.366Z,1003.67
2018-02-21T05:20:42.288Z,1003.69
2018-02-21T05:21:49.316Z,1003.69
2018-02-21T05:22:54.267Z,1003.71
2018-02-21T05:24:00.223Z,1003.73
2018-02-21T05:25:05.708Z,1003.74
2018-02-21T05:26:11.730Z,1003.75
2018-02-21T05:27:17.676Z,1003.80
2018-02-21T05:28:23.636Z,1003.73
2018-02-21T05:29:29.622Z,1003.82
2018-02-21T05:30:36.138Z,1003.80
2018-02-21T05:31:42.073Z,1003.75
2018-02-21T05:32:48.059Z,1003.69
2018-02-21T05:33:54.016Z,1003.80
2018-02-21T05:34:59.481Z,1003.71
2018-02-21T05:36:05.974Z,1003.76
2018-02-21T05:37:11.944Z,1003.79
2018-02-21T05:38:17.933Z,1003.75
2018-02-21T05:39:23.886Z,1003.77
2018-02-21T05:40:29.350Z,1003.80
2018-02-21T05:41:35.348Z,1003.81
2018-02-21T05:42:41.847Z,1003.83
2018-02-21T05:43:47.767Z,1003.91
2018-02-21T05:44:53.263Z,1003.90
2018-02-21T05:45:59.768Z,1003.89
2018-02-21T05:47:05.288Z,1003.87
2018-02-21T05:48:11.684Z,1003.87
2018-02-21T05:49:17.647Z,1003.88
2018-02-21T05:50:23.612Z,1003.87
2018-02-21T05:51:29.643Z,1003.84
2018-02-21T05:52:35.579Z,1003.84
2018-02-21T05:53:41.570Z,1003.89
2018-02-21T05:54:47.542Z,1003.91
2018-02-21T05:55:53.530Z,1003.90
2018-02-21T05:56:59.532Z,1003.92
2018-02-21T05:58:05.449Z,1003.88
2018-02-21T05:59:11.401Z,1003.84
2018-02-21T06:00:17.408Z,1003.81
2018-02-21T06:01:23.389Z,1003.82
2018-02-21T06:02:29.338Z,1003.79
2018-02-21T06:03:35.343Z,1003.87
2018-02-21T06:04:41.298Z,1003.82
2018-02-21T06:05:47.370Z,1003.76
2018-02-21T06:06:53.258Z,1003.81
2018-02-21T06:07:59.191Z,1003.87
2018-02-21T06:09:05.187Z,1003.78
2018-02-21T06:10:11.161Z,1003.77
2018-02-21T06:11:17.222Z,1003.81
2018-02-21T06:12:23.160Z,1003.76
2018-02-21T06:13:28.595Z,1003.81
2018-02-21T06:14:35.111Z,1003.80
2018-02-21T06:15:40.996Z,1003.75
2018-02-21T06:16:46.976Z,1003.82
2018-02-21T06:17:52.924Z,1003.77
2018-02-21T06:18:58.394Z,1003.80
2018-02-21T06:20:04.370Z,1003.79
2018-02-21T06:21:10.833Z,1003.86
2018-02-21T06:22:16.336Z,1003.87
2018-02-21T06:23:22.787Z,1003.91
2018-02-21T06:24:28.260Z,1003.92
2018-02-21T06:25:34.215Z,1004.00
2018-02-21T06:26:40.220Z,1003.96
2018-02-21T06:27:46.704Z,1003.99
2018-02-21T06:28:52.656Z,1003.96
2018-02-21T06:29:58.604Z,1003.94
2018-02-21T06:31:04.075Z,1003.96
2018-02-21T06:32:10.634Z,1003.87
2018-02-21T06:33:17.501Z,1003.92
2018-02-21T06:34:22.510Z,1003.90
2018-02-21T06:35:28.474Z,1003.89
2018-02-21T06:36:34.476Z,1003.88
2018-02-21T06:37:40.455Z,1003.91
2018-02-21T06:38:46.006Z,1003.89
2018-02-21T06:39:51.874Z,1003.91
2018-02-21T06:40:58.369Z,1003.89
2018-02-21T06:42:04.349Z,1003.92
2018-02-21T06:43:09.816Z,1003.87
2018-02-21T06:44:16.255Z,1003.93
2018-02-21T06:45:21.754Z,1003.95
2018-02-21T06:46:28.220Z,1003.95
2018-02-21T06:47:34.235Z,1003.96
2018-02-21T06:48:40.170Z,1004.04
2018-02-21T06:49:46.150Z,1004.00
2018-02-21T06:50:51.632Z,1004.02
2018-02-21T06:51:58.138Z,1004.03
2018-02-21T06:53:04.116Z,1003.99
2018-02-21T06:54:10.104Z,1003.98
2018-02-21T06:55:16.027Z,1003.98
2018-02-21T06:56:22.040Z,1004.06
2018-02-21T06:57:27.720Z,1004.06
2018-02-21T06:58:33.969Z,1004.04
2018-02-21T06:59:39.473Z,1003.98
2018-02-21T07:00:45.928Z,1004.01
2018-02-21T07:01:51.567Z,1004.06
2018-02-21T07:02:58.009Z,1004.06
2018-02-21T07:04:03.428Z,1004.09
2018-02-21T07:05:09.376Z,1004.06
2018-02-21T07:06:15.873Z,1004.16
2018-02-21T07:07:21.909Z,1004.15
2018-02-21T07:08:27.838Z,1004.12
2018-02-21T07:09:33.838Z,1004.09
2018-02-21T07:10:39.497Z,1004.14
2018-02-21T07:11:45.799Z,1004.15
2018-02-21T07:12:51.765Z,1004.11
2018-02-21T07:13:57.746Z,1004.10
2018-02-21T07:15:03.328Z,1004.14
2018-02-21T07:16:09.731Z,1004.13
2018-02-21T07:17:16.708Z,1004.08
2018-02-21T07:18:21.711Z,1004.19
2018-02-21T07:19:27.199Z,1004.11
2018-02-21T07:20:33.693Z,1004.21
2018-02-21T07:21:39.152Z,1004.19
2018-02-21T07:22:45.681Z,1004.14
2018-02-21T07:23:51.648Z,1004.20
2018-02-21T07:24:57.676Z,1004.20
2018-02-21T07:26:03.199Z,1004.29
2018-02-21T07:27:09.660Z,1004.24
2018-02-21T07:28:15.579Z,1004.30
2018-02-21T07:29:21.594Z,1004.26
2018-02-21T07:30:28.615Z,1004.26
2018-02-21T07:31:33.157Z,1004.28
2018-02-21T07:32:39.606Z,1004.36
2018-02-21T07:33:45.609Z,1004.31
2018-02-21T07:34:51.561Z,1004.31
2018-02-21T07:37:03.613Z,1004.44
2018-02-21T07:38:09.147Z,1004.48
2018-02-21T07:39:15.068Z,1004.42
2018-02-21T07:40:21.561Z,1004.47
2018-02-21T07:41:27.080Z,1004.43
2018-02-21T07:42:33.547Z,1004.44
2018-02-21T07:43:39.536Z,1004.49
2018-02-21T07:44:45.567Z,1004.50
2018-02-21T07:45:51.522Z,1004.50
2018-02-21T07:46:57.590Z,1004.44
2018-02-21T07:48:03.577Z,1004.53
2018-02-21T07:49:09.566Z,1004.54
2018-02-21T07:50:15.559Z,1004.61
2018-02-21T07:51:21.536Z,1004.54
2018-02-21T07:52:27.065Z,1004.54
2018-02-21T07:53:33.560Z,1004.58
2018-02-21T07:54:40.029Z,1004.65
2018-02-21T07:55:45.090Z,1004.57
2018-02-21T07:56:51.211Z,1004.62
2018-02-21T07:57:57.611Z,1004.60
2018-02-21T07:59:03.069Z,1004.66
2018-02-21T08:00:09.579Z,1004.66
2018-02-21T08:01:15.562Z,1004.70
2018-02-21T08:02:21.618Z,1004.70
2018-02-21T08:03:27.643Z,1004.74
2018-02-21T08:04:33.581Z,1004.75
2018-02-21T08:05:39.602Z,1004.73
2018-02-21T08:06:45.679Z,1004.74
2018-02-21T08:07:51.156Z,1004.75
2018-02-21T08:08:57.634Z,1004.87
2018-02-21T08:10:03.710Z,1004.79
2018-02-21T08:11:09.668Z,1004.78
2018-02-21T08:12:15.677Z,1004.79
2018-02-21T08:13:21.181Z,1004.90
2018-02-21T08:14:27.693Z,1004.84
2018-02-21T08:15:33.699Z,1004.79
2018-02-21T08:16:39.760Z,1004.78
2018-02-21T08:17:45.724Z,1004.81
2018-02-21T08:18:51.250Z,1004.78
2018-02-21T08:19:57.788Z,1004.86
2018-02-21T08:21:03.252Z,1004.95
2018-02-21T08:22:09.772Z,1004.88
2018-02-21T08:23:15.306Z,1004.91
2018-02-21T08:24:21.876Z,1004.91
2018-02-21T08:25:27.820Z,1004.94
2018-02-21T08:26:33.849Z,1004.99
2018-02-21T08:27:39.887Z,1005.00
2018-02-21T08:28:45.871Z,1004.96
2018-02-21T08:29:51.942Z,1005.02
2018-02-21T08:30:57.894Z,1005.06
2018-02-21T08:32:03.939Z,1005.05
2018-02-21T08:33:10.003Z,1005.02
2018-02-21T08:34:15.953Z,1005.11
2018-02-21T08:35:21.952Z,1004.97
2018-02-21T08:36:27.980Z,1005.07
2018-02-21T08:37:33.530Z,1005.10
2018-02-21T08:38:40.049Z,1005.03
2018-02-21T08:39:46.046Z,1005.10
2018-02-21T08:40:52.078Z,1005.12
2018-02-21T08:41:58.077Z,1005.10
2018-02-21T08:43:04.123Z,1005.15
2018-02-21T08:44:10.185Z,1005.14
2018-02-21T08:45:16.166Z,1005.15
2018-02-21T08:46:22.209Z,1005.16
2018-02-21T08:47:28.279Z,1005.12
2018-02-21T08:48:34.235Z,1005.12
2018-02-21T08:49:40.254Z,1005.16
2018-02-21T08:50:46.261Z,1005.12
2018-02-21T08:51:52.275Z,1005.17
2018-02-21T08:52:58.334Z,1005.21
2018-02-21T08:54:04.344Z,1005.16
2018-02-21T08:55:10.406Z,1005.21
2018-02-21T08:56:16.385Z,1005.27
2018-02-21T08:57:22.434Z,1005.16
2018-02-21T08:58:28.461Z,1005.13
2018-02-21T08:59:34.495Z,1005.19
2018-02-21T09:01:46.613Z,1005.11
2018-02-21T09:02:52.611Z,1005.15
2018-02-21T09:03:58.624Z,1005.12
2018-02-21T09:05:04.656Z,1005.10
2018-02-21T09:06:10.721Z,1005.11
2018-02-21T09:07:16.772Z,1004.99
2018-02-21T09:08:23.903Z,1005.01
2018-02-21T09:09:28.877Z,1004.99
2018-02-21T09:10:34.893Z,1004.95
2018-02-21T09:11:40.977Z,1004.92
2018-02-21T09:12:48.075Z,1004.99
2018-02-21T09:13:52.565Z,1004.97
2018-02-21T09:14:58.649Z,1004.96
2018-02-21T09:16:05.170Z,1004.94
2018-02-21T09:17:10.880Z,1004.98
2018-02-21T09:18:17.542Z,1004.93
2018-02-21T09:19:23.374Z,1004.99
2018-02-21T09:20:29.421Z,1005.05
2018-02-21T09:21:35.529Z,1004.99
2018-02-21T09:22:41.558Z,1004.98
2018-02-21T09:23:47.637Z,1004.95
2018-02-21T09:24:53.739Z,1004.98
2018-02-21T09:26:00.810Z,1004.89
2018-02-21T09:27:05.887Z,1004.93
2018-02-21T09:28:11.879Z,1004.96
2018-02-21T09:29:17.974Z,1004.93
2018-02-21T09:32:36.150Z,1004.97
2018-02-21T09:33:42.181Z,1004.93
2018-02-21T09:34:49.277Z,1004.96
2018-02-21T09:35:54.302Z,1004.93
2018-02-21T09:37:00.433Z,1004.96
2018-02-21T09:38:07.471Z,1004.90
2018-02-21T09:39:12.568Z,1004.94
2018-02-21T09:40:18.634Z,1004.94
2018-02-21T09:41:24.713Z,1004.99
2018-02-21T09:42:30.960Z,1004.97
2018-02-21T09:43:36.816Z,1005.02
2018-02-21T09:44:43.949Z,1005.01
2018-02-21T09:45:49.078Z,1005.02
2018-02-21T09:46:55.037Z,1004.95
2018-02-21T09:48:01.261Z,1004.89
2018-02-21T09:49:08.235Z,1004.84
2018-02-21T09:50:14.275Z,1004.85
2018-02-21T09:51:19.319Z,1004.87
2018-02-21T09:52:26.412Z,1004.83
2018-02-21T09:53:31.446Z,1004.87
2018-02-21T09:54:37.515Z,1004.94
2018-02-21T09:55:44.006Z,1004.84
2018-02-21T09:56:49.946Z,1004.86
2018-02-21T09:57:55.889Z,1004.91
2018-02-21T09:59:01.773Z,1004.80
2018-02-21T10:00:07.811Z,1004.77
2018-02-21T10:01:13.887Z,1004.84
2018-02-21T10:02:20.023Z,1004.86
2018-02-21T10:03:26.039Z,1004.75
2018-02-21T10:04:32.052Z,1004.80
2018-02-21T10:07:49.804Z,1004.81
2018-02-21T10:10:02.776Z,1004.71
2018-02-21T10:11:07.964Z,1004.65
2018-02-21T10:12:15.667Z,1004.69
2018-02-21T10:13:20.873Z,1004.64
2018-02-21T10:14:26.734Z,1004.72
2018-02-21T10:15:32.847Z,1004.63
2018-02-21T10:16:38.886Z,1004.66
2018-02-21T10:17:46.004Z,1004.58
2018-02-21T10:19:57.172Z,1004.61
2018-02-21T10:21:03.605Z,1004.65
2018-02-21T10:22:09.368Z,1004.57
2018-02-21T10:23:15.461Z,1004.60
2018-02-21T10:24:21.630Z,1004.59
2018-02-21T10:25:27.649Z,1004.57
2018-02-21T10:26:34.755Z,1004.57
2018-02-21T10:27:39.887Z,1004.61
2018-02-21T10:28:45.986Z,1004.56
2018-02-21T10:32:45.772Z,1004.55
2018-02-21T10:33:51.813Z,1004.51
2018-02-21T10:34:57.919Z,1004.56
2018-02-21T10:36:04.013Z,1004.53
2018-02-21T10:37:10.122Z,1004.51
2018-02-21T10:38:16.276Z,1004.52
2018-02-21T10:39:22.362Z,1004.53
2018-02-21T10:40:29.156Z,1004.48
2018-02-21T10:41:34.595Z,1004.48
2018-02-21T10:42:41.308Z,1004.47
2018-02-21T10:43:46.825Z,1004.46
2018-02-21T10:44:52.962Z,1004.54
2018-02-21T10:45:59.174Z,1004.50
2018-02-21T10:47:05.293Z,1004.52
2018-02-21T10:48:11.314Z,1004.47
2018-02-21T10:49:17.421Z,1004.46
2018-02-21T10:50:23.527Z,1004.51
2018-02-21T10:51:29.704Z,1004.45
2018-02-21T10:52:35.788Z,1004.41
2018-02-21T10:53:41.874Z,1004.41
2018-02-21T10:54:47.995Z,1004.36
2018-02-21T10:55:54.140Z,1004.33
2018-02-21T10:57:00.266Z,1004.36
2018-02-21T10:58:06.377Z,1004.29
2018-02-21T10:59:12.442Z,1004.30
2018-02-21T11:00:18.609Z,1004.29
2018-02-21T11:01:24.718Z,1004.27
2018-02-21T11:02:30.784Z,1004.29
2018-02-21T11:03:36.912Z,1004.31
2018-02-21T11:04:43.025Z,1004.25
2018-02-21T11:05:49.170Z,1004.29
2018-02-21T11:06:55.250Z,1004.32
2018-02-21T11:08:01.396Z,1004.35
2018-02-21T11:09:07.477Z,1004.32
2018-02-21T11:10:13.612Z,1004.24
2018-02-21T11:11:19.702Z,1004.29
2018-02-21T11:12:25.819Z,1004.25
2018-02-21T11:13:31.969Z,1004.31
2018-02-21T11:14:38.557Z,1004.23
2018-02-21T11:15:43.685Z,1004.30
2018-02-21T11:16:50.295Z,1004.30
2018-02-21T11:17:57.433Z,1004.29
2018-02-21T11:19:02.535Z,1004.22
2018-02-21T11:20:08.166Z,1004.24
2018-02-21T11:21:14.788Z,1004.26
2018-02-21T11:22:20.412Z,1004.22
2018-02-21T11:23:26.581Z,1004.26
2018-02-21T11:24:33.167Z,1004.23
2018-02-21T11:25:38.780Z,1004.34
2018-02-21T11:26:44.909Z,1004.24
2018-02-21T11:27:51.049Z,1004.24
2018-02-21T11:28:57.923Z,1004.12
2018-02-21T11:30:03.280Z,1004.21
2018-02-21T11:31:09.389Z,1004.11
2018-02-21T11:32:16.009Z,1004.08
2018-02-21T11:33:21.664Z,1004.09
2018-02-21T11:34:28.276Z,1004.08
2018-02-21T11:35:34.389Z,1004.03
2018-02-21T11:36:40.055Z,1004.04
2018-02-21T11:37:46.768Z,1004.07
2018-02-21T11:38:52.282Z,1004.09
2018-02-21T11:39:58.903Z,1004.08
2018-02-21T11:41:05.042Z,1004.10
2018-02-21T11:42:10.685Z,1004.12
2018-02-21T11:43:16.860Z,1004.10
2018-02-21T11:44:23.501Z,1004.07
2018-02-21T11:45:29.194Z,1004.02
2018-02-21T11:46:35.890Z,1004.04
2018-02-21T11:47:41.627Z,1004.02
2018-02-21T11:48:48.350Z,1004.00
2018-02-21T11:49:54.088Z,1003.99
2018-02-21T11:51:00.342Z,1003.99
2018-02-21T11:52:07.151Z,1003.97
2018-02-21T11:53:13.424Z,1003.98
2018-02-21T11:54:19.680Z,1004.01
2018-02-21T11:55:25.498Z,1003.96
2018-02-21T11:56:31.825Z,1003.99
2018-02-21T11:57:38.640Z,1003.98
2018-02-21T11:58:44.502Z,1003.94
2018-02-21T11:59:50.830Z,1003.95
2018-02-21T12:00:57.199Z,1003.86
2018-02-21T12:02:03.554Z,1003.95
2018-02-21T12:03:09.937Z,1003.93
2018-02-21T12:04:16.788Z,1003.86
2018-02-21T12:05:22.672Z,1003.85
2018-02-21T12:06:29.163Z,1003.81
2018-02-21T12:07:35.937Z,1003.83
2018-02-21T12:08:42.377Z,1003.85
2018-02-21T12:09:48.250Z,1003.77
2018-02-21T12:10:54.663Z,1003.82
2018-02-21T12:12:01.207Z,1003.79
2018-02-21T12:13:07.518Z,1003.77
2018-02-21T12:14:14.401Z,1003.80
2018-02-21T12:15:20.835Z,1003.80
2018-02-21T12:16:27.510Z,1003.78
2018-02-21T12:18:39.655Z,1003.78
2018-02-21T12:19:46.075Z,1003.81
2018-02-21T12:20:52.536Z,1003.82
2018-02-21T12:21:59.482Z,1003.87
2018-02-21T12:23:05.961Z,1003.82
2018-02-21T12:24:11.877Z,1003.84
2018-02-21T12:25:18.333Z,1003.80
2018-02-21T12:26:25.283Z,1003.78
2018-02-21T12:27:31.243Z,1003.77
2018-02-21T12:28:37.732Z,1003.78
2018-02-21T12:29:44.169Z,1003.73
2018-02-21T12:30:50.649Z,1003.73
2018-02-21T12:31:57.113Z,1003.69
2018-02-21T12:33:03.605Z,1003.73
2018-02-21T12:34:10.066Z,1003.69
2018-02-21T12:35:17.550Z,1003.68
2018-02-21T12:36:23.038Z,1003.71
2018-02-21T12:37:30.023Z,1003.67
2018-02-21T12:38:36.526Z,1003.63
2018-02-21T12:39:42.985Z,1003.63
2018-02-21T12:40:48.986Z,1003.65
2018-02-21T12:41:55.466Z,1003.57
2018-02-21T12:43:02.480Z,1003.60
2018-02-21T12:44:08.960Z,1003.58
2018-02-21T12:45:15.435Z,1003.55
2018-02-21T12:46:21.906Z,1003.58
2018-02-21T12:47:27.908Z,1003.53
2018-02-21T12:48:34.408Z,1003.63
2018-02-21T12:49:41.368Z,1003.57
2018-02-21T12:50:47.363Z,1003.59
2018-02-21T12:51:53.850Z,1003.55
2018-02-21T12:53:00.398Z,1003.54
2018-02-21T12:54:06.811Z,1003.55
2018-02-21T12:55:13.293Z,1003.57
2018-02-21T12:56:19.789Z,1003.56
2018-02-21T12:57:26.276Z,1003.61
2018-02-21T12:58:32.803Z,1003.59
2018-02-21T12:59:39.783Z,1003.57
2018-02-21T13:00:45.796Z,1003.57
2018-02-21T13:01:52.269Z,1003.55
2018-02-21T13:02:58.755Z,1003.62
2018-02-21T13:04:05.262Z,1003.59
2018-02-21T13:05:12.744Z,1003.54
2018-02-21T13:06:18.250Z,1003.55
2018-02-21T13:07:24.755Z,1003.58
2018-02-21T13:08:31.272Z,1003.54
2018-02-21T13:09:38.923Z,1003.47
2018-02-21T13:10:44.282Z,1003.45
2018-02-21T13:11:51.336Z,1003.49
2018-02-21T13:12:57.338Z,1003.47
2018-02-21T13:14:04.366Z,1003.40
2018-02-21T13:15:10.372Z,1003.41
2018-02-21T13:16:17.399Z,1003.49
2018-02-21T13:17:23.440Z,1003.44
2018-02-21T13:18:29.988Z,1003.40
2018-02-21T13:19:36.521Z,1003.36
2018-02-21T13:20:43.547Z,1003.38
2018-02-21T13:21:50.099Z,1003.39
2018-02-21T13:22:56.629Z,1003.33
2018-02-21T13:24:02.706Z,1003.36
2018-02-21T13:25:09.230Z,1003.34
2018-02-21T13:26:16.278Z,1003.31
2018-02-21T13:27:22.357Z,1003.30
2018-02-21T13:28:29.397Z,1003.29
2018-02-21T13:29:35.437Z,1003.27
2018-02-21T13:30:41.985Z,1003.40
2018-02-21T13:31:49.041Z,1003.23